KBJI/BJI METAR and TAF weather

Enter ICAO airport designator
Station Type Date Time Source
KBJI METAR 2019/10/16 19:15 UTC NOAA

KBJI 161915Z AUTO 29005KT 10SM OVC021 06/01 A3007 RMK AO2 T00570011


Station Type Date Time Source
KBJI Decoded METAR 2019/10/16 19:15 UTC NOAA

Bemidji, MN, United States (KBJI) 47-30N 094-56W 420M
Oct 16, 2019 - 03:15 PM EDT / 2019.10.16 1915 UTC
Wind: from the WNW (290 degrees) at 6 MPH (5 KT):0
Visibility: 10 mile(s):0
Sky conditions: overcast
Temperature: 42.3 F (5.7 C)
Dew Point: 34.0 F (1.1 C)
Relative Humidity: 72%
Pressure (altimeter): 30.07 in. Hg (1018 hPa)
ob: KBJI 161915Z AUTO 29005KT 10SM OVC021 06/01 A3007 RMK AO2 T00570011
cycle: 19

Station Type Date Time Source
KBJI TAF 2019/10/16 18:33 UTC NOAA

TAF KBJI 161729Z 1618/1718 VRB03KT P6SM OVC012
FM170000 VRB03KT P6SM BKN025
FM170700 VRB03KT P6SM SCT090

Example: see airport list